Time,TemperatureF,DewpointF,PressureIn,WindDirection,WindDirectionDegrees,WindSpeedMPH,WindSpeedGustMPH,Humidity,HourlyPrecipIn,Conditions,Clouds,dailyrainin,SolarRadiationWatts/m^2,SoftwareType,DateUTC
2013-08-26 00:07:00,61.3,58.0,30.13,NNW,338,0.0,0.0,90,0.00,,,0.00,0,weatherlink.com 1.10,2013-08-25 23:07:00,
2013-08-26 00:22:00,60.8,58.0,30.13,NNW,338,0.0,0.0,90,0.00,,,0.00,0,weatherlink.com 1.10,2013-08-25 23:22:00,
2013-08-26 00:37:00,60.6,58.0,30.13,NNW,338,0.0,0.0,90,0.00,,,0.00,0,weatherlink.com 1.10,2013-08-25 23:37:00,
2013-08-26 00:52:00,60.0,57.0,30.13,NNW,338,0.0,0.0,90,0.00,,,0.00,0,weatherlink.com 1.10,2013-08-25 23:52:00,
2013-08-26 01:08:00,59.6,57.0,30.13,NNW,338,0.0,0.0,90,0.00,,,0.00,0,weatherlink.com 1.10,2013-08-26 00:08:00,
2013-08-26 01:23:00,59.3,57.0,30.13,NNW,338,1.0,3.0,91,0.00,,,0.00,0,weatherlink.com 1.10,2013-08-26 00:23:00,
2013-08-26 01:38:00,59.2,57.0,30.13,NNW,338,0.0,4.0,92,0.00,,,0.00,0,weatherlink.com 1.10,2013-08-26 00:38:00,
2013-08-26 01:53:00,59.0,57.0,30.13,NNW,338,1.0,3.0,92,0.00,,,0.00,0,weatherlink.com 1.10,2013-08-26 00:53:00,
2013-08-26 02:08:00,58.7,56.0,30.14,NNW,338,0.0,1.0,92,0.00,,,0.00,0,weatherlink.com 1.10,2013-08-26 01:08:00,
2013-08-26 02:23:00,58.0,56.0,30.14,NNW,338,0.0,1.0,92,0.00,,,0.00,0,weatherlink.com 1.10,2013-08-26 01:23:00,
2013-08-26 02:38:00,57.5,55.0,30.14,NNW,338,0.0,2.0,92,0.00,,,0.00,0,weatherlink.com 1.10,2013-08-26 01:38:00,
2013-08-26 02:53:00,57.2,55.0,30.14,NNW,338,0.0,0.0,93,0.00,,,0.00,0,weatherlink.com 1.10,2013-08-26 01:53:00,
2013-08-26 03:08:00,56.9,55.0,30.14,NNW,338,0.0,1.0,93,0.00,,,0.00,0,weatherlink.com 1.10,2013-08-26 02:08:00,
2013-08-26 03:23:00,57.7,56.0,30.14,NNW,338,1.0,4.0,94,0.00,,,0.00,0,weatherlink.com 1.10,2013-08-26 02:23:00,
2013-08-26 03:38:00,58.7,57.0,30.14,NNW,338,0.0,4.0,94,0.00,,,0.00,0,weatherlink.com 1.10,2013-08-26 02:38:00,
2013-08-26 03:53:00,59.1,57.0,30.14,NNW,338,0.0,4.0,93,0.00,,,0.00,0,weatherlink.com 1.10,2013-08-26 02:53:00,
2013-08-26 04:08:00,59.1,57.0,30.14,NNW,338,2.0,4.0,92,0.00,,,0.00,0,weatherlink.com 1.10,2013-08-26 03:08:00,
2013-08-26 04:23:00,59.3,57.0,30.14,NNW,338,0.0,4.0,92,0.00,,,0.00,0,weatherlink.com 1.10,2013-08-26 03:23:00,
2013-08-26 04:38:00,58.5,56.0,30.14,NNW,338,0.0,2.0,92,0.00,,,0.00,0,weatherlink.com 1.10,2013-08-26 03:38:00,
2013-08-26 04:53:00,57.6,55.0,30.14,NNW,338,0.0,2.0,91,0.00,,,0.00,0,weatherlink.com 1.10,2013-08-26 03:53:00,
2013-08-26 05:08:00,56.9,55.0,30.14,NNW,338,0.0,1.0,92,0.00,,,0.00,0,weatherlink.com 1.10,2013-08-26 04:08:00,
2013-08-26 05:23:00,56.6,55.0,30.14,NNW,338,2.0,2.0,93,0.00,,,0.00,0,weatherlink.com 1.10,2013-08-26 04:23:00,
2013-08-26 05:38:00,56.7,55.0,30.14,NNW,338,0.0,1.0,93,0.00,,,0.00,0,weatherlink.com 1.10,2013-08-26 04:38:00,
2013-08-26 05:53:00,56.9,55.0,30.14,NNW,338,0.0,1.0,94,0.00,,,0.00,0,weatherlink.com 1.10,2013-08-26 04:53:00,
2013-08-26 06:08:00,57.2,56.0,30.14,NNW,338,0.0,1.0,94,0.00,,,0.00,0,weatherlink.com 1.10,2013-08-26 05:08:00,
2013-08-26 06:23:00,56.5,55.0,30.15,NNW,338,0.0,2.0,93,0.00,,,0.00,9,weatherlink.com 1.10,2013-08-26 05:23:00,
2013-08-26 06:38:00,56.1,54.0,30.15,NNW,338,0.0,2.0,94,0.00,,,0.00,19,weatherlink.com 1.10,2013-08-26 05:38:00,
2013-08-26 06:53:00,56.2,55.0,30.15,NNW,338,0.0,1.0,94,0.00,,,0.00,39,weatherlink.com 1.10,2013-08-26 05:53:00,
2013-08-26 07:08:00,56.8,55.0,30.15,NNW,338,0.0,1.0,95,0.00,,,0.00,60,weatherlink.com 1.10,2013-08-26 06:08:00,
2013-08-26 07:23:00,57.4,56.0,30.15,NNW,338,0.0,0.0,95,0.00,,,0.00,91,weatherlink.com 1.10,2013-08-26 06:23:00,
2013-08-26 07:38:00,58.6,58.0,30.15,NNW,338,0.0,0.0,96,0.00,,,0.00,121,weatherlink.com 1.10,2013-08-26 06:38:00,
2013-08-26 07:53:00,59.3,58.0,30.15,NNW,338,0.0,1.0,95,0.00,,,0.00,156,weatherlink.com 1.10,2013-08-26 06:53:00,
2013-08-26 08:08:00,59.5,58.0,30.16,NNW,338,0.0,3.0,95,0.00,,,0.00,134,weatherlink.com 1.10,2013-08-26 07:08:00,
2013-08-26 08:23:00,59.6,58.0,30.16,NNW,338,0.0,3.0,95,0.00,,,0.00,232,weatherlink.com 1.10,2013-08-26 07:23:00,
2013-08-26 08:38:00,60.1,59.0,30.16,NNW,338,0.0,3.0,95,0.00,,,0.00,118,weatherlink.com 1.10,2013-08-26 07:38:00,
2013-08-26 08:53:00,60.0,58.0,30.16,NNW,338,0.0,3.0,94,0.00,,,0.00,132,weatherlink.com 1.10,2013-08-26 07:53:00,
2013-08-26 09:08:00,60.2,59.0,30.16,NNW,338,0.0,3.0,95,0.00,,,0.00,130,weatherlink.com 1.10,2013-08-26 08:08:00,
2013-08-26 09:23:00,59.9,58.0,30.16,NNW,338,0.0,3.0,94,0.00,,,0.00,141,weatherlink.com 1.10,2013-08-26 08:23:00,
2013-08-26 09:38:00,60.3,59.0,30.16,WSW,243,0.0,2.0,95,0.00,,,0.00,172,weatherlink.com 1.10,2013-08-26 08:38:00,
2013-08-26 09:53:00,60.7,59.0,30.16,WSW,243,0.0,2.0,94,0.00,,,0.00,230,weatherlink.com 1.10,2013-08-26 08:53:00,
2013-08-26 10:08:00,61.3,60.0,30.16,WSW,243,0.0,3.0,94,0.00,,,0.00,320,weatherlink.com 1.10,2013-08-26 09:08:00,
2013-08-26 10:24:00,62.9,61.0,30.16,WSW,243,0.0,3.0,93,0.00,,,0.00,241,weatherlink.com 1.10,2013-08-26 09:24:00,
2013-08-26 10:39:00,63.8,62.0,30.16,SSE,161,2.0,4.0,92,0.00,,,0.00,594,weatherlink.com 1.10,2013-08-26 09:39:00,
2013-08-26 10:54:00,64.6,61.0,30.16,SSE,161,2.0,5.0,89,0.00,,,0.00,612,weatherlink.com 1.10,2013-08-26 09:54:00,
2013-08-26 11:09:00,64.7,61.0,30.16,SSE,161,0.0,6.0,86,0.00,,,0.00,629,weatherlink.com 1.10,2013-08-26 10:09:00,
2013-08-26 11:24:00,65.7,62.0,30.15,SSE,161,3.0,5.0,86,0.00,,,0.00,664,weatherlink.com 1.10,2013-08-26 10:24:00,
2013-08-26 11:39:00,66.2,61.0,30.16,South,179,0.0,7.0,84,0.00,,,0.00,659,weatherlink.com 1.10,2013-08-26 10:39:00,
2013-08-26 11:54:00,67.2,62.0,30.15,South,179,3.0,6.0,83,0.00,,,0.00,668,weatherlink.com 1.10,2013-08-26 10:54:00,
2013-08-26 12:09:00,68.0,63.0,30.15,South,180,3.0,7.0,83,0.00,,,0.00,703,weatherlink.com 1.10,2013-08-26 11:09:00,
2013-08-26 12:24:00,67.4,61.0,30.15,South,182,0.0,6.0,81,0.00,,,0.00,675,weatherlink.com 1.10,2013-08-26 11:24:00,
2013-08-26 12:39:00,68.4,62.0,30.15,South,182,2.0,5.0,80,0.00,,,0.00,686,weatherlink.com 1.10,2013-08-26 11:39:00,
2013-08-26 12:54:00,68.1,62.0,30.15,SSW,212,4.0,7.0,80,0.00,,,0.00,686,weatherlink.com 1.10,2013-08-26 11:54:00,
2013-08-26 13:09:00,68.6,63.0,30.14,SSW,212,3.0,7.0,81,0.00,,,0.00,698,weatherlink.com 1.10,2013-08-26 12:09:00,
2013-08-26 13:24:00,68.0,62.0,30.14,SW,223,2.0,9.0,81,0.00,,,0.00,693,weatherlink.com 1.10,2013-08-26 12:24:00,
2013-08-26 13:39:00,68.0,62.0,30.14,SW,236,4.0,9.0,81,0.00,,,0.00,689,weatherlink.com 1.10,2013-08-26 12:39:00,
2013-08-26 13:54:00,67.7,62.0,30.14,WSW,248,2.0,8.0,82,0.00,,,0.00,687,weatherlink.com 1.10,2013-08-26 12:54:00,
2013-08-26 14:09:00,68.6,62.0,30.14,WSW,246,0.0,8.0,80,0.00,,,0.00,679,weatherlink.com 1.10,2013-08-26 13:09:00,
2013-08-26 14:24:00,67.4,62.0,30.14,WSW,251,5.0,8.0,82,0.00,,,0.00,664,weatherlink.com 1.10,2013-08-26 13:24:00,
2013-08-26 14:39:00,66.9,61.0,30.13,WSW,251,7.0,8.0,82,0.00,,,0.00,652,weatherlink.com 1.10,2013-08-26 13:39:00,
2013-08-26 14:54:00,67.4,62.0,30.13,WSW,251,6.0,6.0,82,0.00,,,0.00,631,weatherlink.com 1.10,2013-08-26 13:54:00,
2013-08-26 15:09:00,66.2,61.0,30.14,West,270,1.0,8.0,83,0.00,,,0.00,615,weatherlink.com 1.10,2013-08-26 14:09:00,
2013-08-26 15:24:00,65.4,60.0,30.13,West,270,1.0,8.0,83,0.00,,,0.00,582,weatherlink.com 1.10,2013-08-26 14:24:00,
2013-08-26 15:39:00,66.7,61.0,30.13,West,270,2.0,4.0,82,0.00,,,0.00,570,weatherlink.com 1.10,2013-08-26 14:39:00,
2013-08-26 15:54:00,66.8,60.0,30.13,West,270,0.0,6.0,79,0.00,,,0.00,533,weatherlink.com 1.10,2013-08-26 14:54:00,
2013-08-26 16:09:00,68.3,62.0,30.13,West,270,3.0,5.0,79,0.00,,,0.00,508,weatherlink.com 1.10,2013-08-26 15:09:00,
2013-08-26 16:24:00,68.3,62.0,30.12,West,270,3.0,5.0,80,0.00,,,0.00,485,weatherlink.com 1.10,2013-08-26 15:24:00,
2013-08-26 16:39:00,68.3,60.0,30.12,West,270,1.0,4.0,75,0.00,,,0.00,450,weatherlink.com 1.10,2013-08-26 15:39:00,
2013-08-26 16:54:00,68.4,61.0,30.11,West,270,2.0,4.0,76,0.00,,,0.00,413,weatherlink.com 1.10,2013-08-26 15:54:00,
2013-08-26 17:09:00,69.1,60.0,30.11,West,270,0.0,4.0,73,0.00,,,0.00,385,weatherlink.com 1.10,2013-08-26 16:09:00,
2013-08-26 17:24:00,69.7,60.0,30.11,West,270,4.0,5.0,71,0.00,,,0.00,350,weatherlink.com 1.10,2013-08-26 16:24:00,
2013-08-26 17:39:00,68.7,60.0,30.10,West,270,1.0,4.0,73,0.00,,,0.00,318,weatherlink.com 1.10,2013-08-26 16:39:00,
2013-08-26 17:54:00,68.9,59.0,30.10,West,270,3.0,4.0,71,0.00,,,0.00,279,weatherlink.com 1.10,2013-08-26 16:54:00,
2013-08-26 18:09:00,67.7,60.0,30.10,West,270,2.0,5.0,75,0.00,,,0.00,239,weatherlink.com 1.10,2013-08-26 17:09:00,
2013-08-26 18:24:00,65.1,59.0,30.10,West,270,1.0,7.0,80,0.00,,,0.00,204,weatherlink.com 1.10,2013-08-26 17:24:00,
2013-08-26 18:39:00,64.3,58.0,30.10,West,270,0.0,4.0,81,0.00,,,0.00,169,weatherlink.com 1.10,2013-08-26 17:39:00,
2013-08-26 18:54:00,64.1,59.0,30.10,West,270,0.0,3.0,82,0.00,,,0.00,135,weatherlink.com 1.10,2013-08-26 17:54:00,
2013-08-26 19:09:00,65.0,59.0,30.10,West,270,0.0,2.0,82,0.00,,,0.00,104,weatherlink.com 1.10,2013-08-26 18:09:00,
2013-08-26 19:24:00,64.6,59.0,30.11,West,270,0.0,2.0,83,0.00,,,0.00,70,weatherlink.com 1.10,2013-08-26 18:24:00,
2013-08-26 19:39:00,64.4,59.0,30.11,West,270,0.0,1.0,83,0.00,,,0.00,28,weatherlink.com 1.10,2013-08-26 18:39:00,
2013-08-26 19:54:00,63.3,58.0,30.11,West,270,0.0,1.0,84,0.00,,,0.00,16,weatherlink.com 1.10,2013-08-26 18:54:00,
2013-08-26 20:09:00,61.9,58.0,30.11,West,270,0.0,0.0,86,0.00,,,0.00,7,weatherlink.com 1.10,2013-08-26 19:09:00,
2013-08-26 20:24:00,60.0,57.0,30.11,West,270,0.0,1.0,88,0.00,,,0.00,0,weatherlink.com 1.10,2013-08-26 19:24:00,
2013-08-26 20:39:00,59.2,56.0,30.11,West,270,0.0,0.0,89,0.00,,,0.00,0,weatherlink.com 1.10,2013-08-26 19:39:00,
2013-08-26 20:54:00,58.5,56.0,30.11,West,270,0.0,0.0,90,0.00,,,0.00,0,weatherlink.com 1.10,2013-08-26 19:54:00,
2013-08-26 21:09:00,58.2,56.0,30.11,West,270,1.0,2.0,91,0.00,,,0.00,0,weatherlink.com 1.10,2013-08-26 20:09:00,
2013-08-26 21:24:00,57.3,55.0,30.12,West,270,0.0,1.0,92,0.00,,,0.00,0,weatherlink.com 1.10,2013-08-26 20:24:00,
2013-08-26 21:39:00,56.8,55.0,30.12,West,270,0.0,1.0,92,0.00,,,0.00,0,weatherlink.com 1.10,2013-08-26 20:39:00,
2013-08-26 21:54:00,56.4,55.0,30.12,West,270,0.0,0.0,93,0.00,,,0.00,0,weatherlink.com 1.10,2013-08-26 20:54:00,
2013-08-26 22:09:00,55.7,54.0,30.12,West,270,0.0,0.0,93,0.00,,,0.00,0,weatherlink.com 1.10,2013-08-26 21:09:00,
2013-08-26 22:24:00,55.3,53.0,30.12,West,270,0.0,0.0,93,0.00,,,0.00,0,weatherlink.com 1.10,2013-08-26 21:24:00,
2013-08-26 22:39:00,55.0,53.0,30.11,West,270,0.0,0.0,93,0.00,,,0.00,0,weatherlink.com 1.10,2013-08-26 21:39:00,
2013-08-26 22:54:00,55.0,53.0,30.11,West,270,0.0,1.0,94,0.00,,,0.00,0,weatherlink.com 1.10,2013-08-26 21:54:00,
2013-08-26 23:09:00,55.0,53.0,30.11,West,270,0.0,0.0,94,0.00,,,0.00,0,weatherlink.com 1.10,2013-08-26 22:09:00,
2013-08-26 23:24:00,54.9,53.0,30.11,West,270,0.0,0.0,94,0.00,,,0.00,0,weatherlink.com 1.10,2013-08-26 22:24:00,
2013-08-26 23:39:00,54.7,53.0,30.10,West,270,0.0,0.0,94,0.00,,,0.00,0,weatherlink.com 1.10,2013-08-26 22:39:00,
2013-08-26 23:54:00,54.6,53.0,30.10,West,270,0.0,1.0,95,0.00,,,0.00,0,weatherlink.com 1.10,2013-08-26 22:54:00,